createdAt,value
2022-11-13T00:00:34.189Z,41.66
2022-11-13T00:07:14.757Z,41.72
2022-11-13T00:13:39.205Z,41.73
2022-11-13T00:20:15.975Z,41.78
2022-11-13T00:26:47.528Z,41.83
2022-11-13T00:33:38.534Z,41.82
2022-11-13T00:40:01.660Z,41.77
2022-11-13T00:46:27.117Z,41.73
2022-11-13T00:52:54.794Z,41.81
2022-11-13T00:59:21.156Z,41.78
2022-11-13T01:05:47.556Z,41.78
2022-11-13T01:12:12.739Z,41.77
2022-11-13T01:18:39.248Z,41.81
2022-11-13T01:25:09.168Z,41.85
2022-11-13T01:31:35.212Z,41.83
2022-11-13T01:37:58.563Z,41.79
2022-11-13T01:44:29.726Z,41.87
2022-11-13T01:51:17.298Z,41.84
2022-11-13T01:58:00.199Z,41.84
2022-11-13T02:04:37.176Z,41.78
2022-11-13T02:11:12.187Z,41.87
2022-11-13T02:17:48.439Z,41.79
2022-11-13T02:24:55.574Z,41.83
2022-11-13T02:31:29.184Z,41.81
2022-11-13T02:38:09.715Z,41.82
2022-11-13T02:44:35.115Z,41.88
2022-11-13T02:51:10.305Z,41.95
2022-11-13T02:57:43.175Z,41.94
2022-11-13T03:04:19.165Z,41.93
2022-11-13T03:10:51.594Z,41.92
2022-11-13T03:17:22.207Z,41.92
2022-11-13T03:23:47.117Z,41.84
2022-11-13T03:36:37.815Z,41.93
2022-11-13T03:43:03.066Z,41.96
2022-11-13T03:49:35.613Z,42.01
2022-11-13T03:55:57.269Z,41.91
2022-11-13T04:02:20.195Z,41.9
2022-11-13T04:08:40.227Z,41.89
2022-11-13T04:15:05.743Z,41.92
2022-11-13T04:21:28.015Z,41.89
2022-11-13T04:27:48.505Z,41.91
2022-11-13T04:34:19.185Z,41.88
2022-11-13T04:40:39.645Z,41.92
2022-11-13T04:47:07.286Z,41.91
2022-11-13T04:53:27.285Z,41.97
2022-11-13T04:59:50.176Z,41.94
2022-11-13T05:06:12.359Z,41.95
2022-11-13T05:12:37.363Z,41.4
2022-11-13T05:19:01.637Z,40.09
2022-11-13T05:25:31.336Z,39.68
2022-11-13T05:31:53.425Z,39.26
2022-11-13T05:38:15.117Z,39.43
2022-11-13T05:44:44.592Z,39.43
2022-11-13T05:51:05.374Z,39.57
2022-11-13T05:57:31.200Z,39.74
2022-11-13T06:03:56.297Z,39.76
2022-11-13T06:10:25.957Z,39.78
2022-11-13T06:16:57.741Z,39.91
2022-11-13T06:23:27.674Z,40.03
2022-11-13T06:29:55.338Z,40.22
2022-11-13T06:36:17.210Z,40.52
2022-11-13T06:42:45.434Z,40.53
2022-11-13T06:49:17.324Z,40.77
2022-11-13T06:55:43.363Z,40.77
2022-11-13T07:02:10.958Z,40.95
2022-11-13T07:08:35.360Z,41.04
2022-11-13T07:15:10.506Z,41.11
2022-11-13T07:21:31.276Z,41.02
2022-11-13T07:27:51.259Z,41.08
2022-11-13T07:34:31.318Z,41.07
2022-11-13T07:40:57.930Z,41.07
2022-11-13T07:47:30.956Z,40.85
2022-11-13T07:53:55.712Z,40.83
2022-11-13T08:00:19.369Z,40.78
2022-11-13T08:06:50.975Z,40.63
2022-11-13T08:13:15.240Z,40.64
2022-11-13T08:19:47.818Z,40.72
2022-11-13T08:26:15.390Z,40.64
2022-11-13T08:32:42.315Z,40.59
2022-11-13T08:39:06.435Z,40.63
2022-11-13T08:45:35.877Z,40.64
2022-11-13T08:52:02.322Z,40.7
2022-11-13T08:58:28.435Z,40.85
2022-11-13T09:05:00.438Z,40.74
2022-11-13T09:11:28.336Z,40.93
2022-11-13T09:17:53.439Z,41.15
2022-11-13T09:24:21.553Z,41.19
2022-11-13T09:30:48.345Z,41.13
2022-11-13T09:37:27.425Z,41.2
2022-11-13T09:44:06.362Z,41.01
2022-11-13T09:51:08.738Z,41.09
2022-11-13T09:58:11.449Z,40.97
2022-11-13T10:05:07.437Z,41
2022-11-13T10:12:16.447Z,40.88
2022-11-13T10:19:15.867Z,40.91
2022-11-13T10:26:15.459Z,40.87
2022-11-13T10:32:54.354Z,40.94
2022-11-13T10:39:52.510Z,40.8
2022-11-13T10:46:50.507Z,40.84
2022-11-13T10:53:33.398Z,40.89
2022-11-13T11:00:24.368Z,40.85
2022-11-13T11:07:20.856Z,40.82
2022-11-13T11:14:01.426Z,40.76
2022-11-13T11:21:00.511Z,40.73
2022-11-13T11:27:58.433Z,40.78
2022-11-13T11:35:01.511Z,40.83
2022-11-13T11:42:21.292Z,40.89
2022-11-13T11:49:10.429Z,40.81
2022-11-13T11:56:08.972Z,40.66
2022-11-13T12:03:18.741Z,40.61
2022-11-13T12:10:43.309Z,40.8
2022-11-13T12:17:40.593Z,40.58
2022-11-13T12:24:54.946Z,40.67
2022-11-13T12:32:08.725Z,40.61
2022-11-13T12:39:09.033Z,40.63
2022-11-13T12:46:07.241Z,40.55
2022-11-13T12:52:57.844Z,40.37
2022-11-13T13:00:06.414Z,40.35
2022-11-13T13:07:20.042Z,40.55
2022-11-13T13:14:20.204Z,40.67
2022-11-13T13:21:11.974Z,40.53
2022-11-13T13:28:05.466Z,40.16
2022-11-13T13:35:07.715Z,39.55
2022-11-13T13:42:11.208Z,39.5
2022-11-13T13:49:16.204Z,39.18
2022-11-13T13:56:09.064Z,38.93
2022-11-13T14:02:57.690Z,38.89
2022-11-13T14:09:44.650Z,38.77
2022-11-13T14:16:34.477Z,38.75
2022-11-13T14:23:30.664Z,38.86
2022-11-13T14:30:28.045Z,39.36
2022-11-13T14:37:13.667Z,39.74
2022-11-13T14:44:11.712Z,39.93
2022-11-13T14:51:28.211Z,40.03
2022-11-13T14:58:28.167Z,39.94
2022-11-13T15:05:17.634Z,40.12
2022-11-13T15:11:57.815Z,40.04
2022-11-13T15:18:35.266Z,39.93
2022-11-13T15:25:16.644Z,40.11
2022-11-13T15:31:55.291Z,40.02
2022-11-13T15:38:34.358Z,40.16
2022-11-13T15:45:12.069Z,40.38
2022-11-13T15:51:41.046Z,40.41
2022-11-13T15:58:13.634Z,40.43
2022-11-13T16:04:57.883Z,40.44
2022-11-13T16:11:34.809Z,40.31
2022-11-13T16:18:10.761Z,40.34
2022-11-13T16:24:51.013Z,40.3
2022-11-13T16:31:33.976Z,40.32
2022-11-13T16:38:13.536Z,40.29
2022-11-13T16:44:50.706Z,40.36
2022-11-13T16:51:26.355Z,40.44
2022-11-13T16:57:53.021Z,40.64
2022-11-13T17:04:20.729Z,40.77
2022-11-13T17:11:00.841Z,40.68
2022-11-13T17:17:32.711Z,40.77
2022-11-13T17:24:08.900Z,40.75
2022-11-13T17:30:36.245Z,40.81
2022-11-13T17:37:11.748Z,40.84
2022-11-13T17:43:40.436Z,40.86
2022-11-13T17:50:08.444Z,40.82
2022-11-13T17:56:54.158Z,40.64
2022-11-13T18:03:21.959Z,40.81
2022-11-13T18:10:00.579Z,40.85
2022-11-13T18:16:32.593Z,40.7
2022-11-13T18:23:05.748Z,40.75
2022-11-13T18:29:36.199Z,40.93
2022-11-13T18:36:11.857Z,40.89
2022-11-13T18:42:41.486Z,40.87
2022-11-13T18:49:16.166Z,40.87
2022-11-13T18:55:46.964Z,40.85
2022-11-13T19:02:31.052Z,40.64
2022-11-13T19:09:06.969Z,40.72
2022-11-13T19:15:47.613Z,40.82
2022-11-13T19:22:30.901Z,41.02
2022-11-13T19:29:08.981Z,40.89
2022-11-13T19:35:35.790Z,41.09
2022-11-13T19:42:06.365Z,41.14
2022-11-13T19:48:27.858Z,41.24
2022-11-13T19:54:54.985Z,41.34
2022-11-13T20:01:27.098Z,41.32
2022-11-13T20:08:02.795Z,41.31
2022-11-13T20:14:26.411Z,41.33
2022-11-13T20:20:58.259Z,41.28
2022-11-13T20:27:28.212Z,41.37
2022-11-13T20:33:59.995Z,41.56
2022-11-13T20:40:20.757Z,41.55
2022-11-13T20:46:54.897Z,41.67
2022-11-13T20:53:19.987Z,41.72
2022-11-13T20:59:49.793Z,41.84
2022-11-13T21:06:17.964Z,41.9
2022-11-13T21:12:50.265Z,41.77
2022-11-13T21:19:13.736Z,41.86
2022-11-13T21:25:38.737Z,41.86
2022-11-13T21:32:10.829Z,41.9
2022-11-13T21:38:42.296Z,41.92
2022-11-13T21:45:09.949Z,41.93
2022-11-13T21:51:40.328Z,42.05
2022-11-13T21:58:04.793Z,41.88
2022-11-13T22:04:35.904Z,41.9
2022-11-13T22:11:10.902Z,41.96
2022-11-13T22:17:38.226Z,41.99
2022-11-13T22:24:20.947Z,42.25
2022-11-13T22:30:46.296Z,41.99
2022-11-13T22:37:20.234Z,41.9
2022-11-13T22:43:53.890Z,41.78
2022-11-13T22:50:16.968Z,41.73
2022-11-13T22:56:48.775Z,41.76
2022-11-13T23:03:15.999Z,42.09
2022-11-13T23:09:47.977Z,42.09
2022-11-13T23:16:23.151Z,41.77
2022-11-13T23:22:47.830Z,42.25
2022-11-13T23:29:12.006Z,42.09
2022-11-13T23:35:48.258Z,41.97
2022-11-13T23:42:12.975Z,42.03
2022-11-13T23:48:42.039Z,41.91
2022-11-13T23:55:02.908Z,41.96
